• Join FlightAware (Why Join?)
  • Login
  • US Flag 
07:58AM EDT


 

Airport Tracker/Info


-or-


 

Live Flight TrackerFlight Track Log ✈ ASQ5745 ✈ 02-Jun-2013 ✈ KIAD - KALB

Flight Track Log - Related Links

Times and Time Zones

All times are in EDT time to prevent confusion due to time zone crossing. See the ASQ5745 flight status page for this flight to view local times or setup timezone preferences in your user account.

Time Position Orientation Groundspeed Altitude Reporting Facility
EDT Latitude Longitude Course Direction KTS MPH feet Rate Location/Type
08:24AM 38.9667 -77.5167 North 203 234 2,300  Level Potomac TRACON
08:26AM 39.0631 -77.6153 322° Northwest 254 292 6,600 2,580 Climbing Washington Center
08:27AM 39.3218 -77.4500 North  Level FlightAware Approximate
08:27AM 39.1428 -77.5908 13° North 261 300 9,400  Level Washington Center
08:28AM 39.4189 -77.4500 North  Level FlightAware Approximate
08:28AM 39.2328 -77.5664 12° North 291 335 11,100  Level Washington Center
08:29AM 39.5160 -77.4500 North  Level FlightAware Approximate
08:29AM 39.3333 -77.5397 12° North 323 372 12,900  Level Washington Center
08:30AM 39.6032 -77.4500 North  Level FlightAware Approximate
08:31AM 39.5261 -77.4869 12° North 382 440 15,800  Level New York Center
08:32AM 39.6342 -77.4567 12° North 395 455 16,700 840 Climbing New York Center
08:33AM 39.7344 -77.4528 North 404 465 17,600 1,080 Climbing New York Center
08:34AM 39.8597 -77.4511 North 409 471 18,900 1,140 Climbing New York Center
08:35AM 39.9789 -77.4464 North 414 476 19,900 960 Climbing New York Center
08:36AM 40.0850 -77.3750 27° Northeast 404 465 20,900 900 Climbing New York Center
08:37AM 40.1769 -77.2967 33° Northeast 413 475 21,700 780 Climbing New York Center
08:38AM 40.2778 -77.2083 34° Northeast 425 489 22,500 600 Climbing New York Center
08:39AM 40.3850 -77.1147 34° Northeast 442 509 22,900 420 Climbing New York Center
08:40AM 40.4897 -77.0233 34° Northeast 449 517 23,400 540 Climbing New York Center
08:41AM 40.5992 -76.9267 34° Northeast 460 529 24,000 540 Climbing New York Center
08:42AM 40.7211 -76.8636 21° North 460 529 24,500 420 Climbing New York Center
08:43AM 40.8431 -76.8058 20° North 460 529 24,900 240 Climbing New York Center
08:44AM 40.9650 -76.7425 21° North 465 535 25,000  Climbing New York Center
08:45AM 41.0908 -76.6819 20° North 470 541 25,000  Level New York Center
08:46AM 41.2150 -76.6183 21° North 470 541 25,000  Level New York Center
08:47AM 41.3536 -76.5531 19° North 475 547 25,000  Level New York Center
08:48AM 41.4817 -76.4892 20° North 480 552 25,000  Level New York Center
08:49AM 41.6056 -76.4219 22° Northeast 480 552 25,000 -240 Level New York Center
08:51AM 41.8872 -76.2778 21° North 490 564 24,300 -300 Descending Boston Center
08:52AM 42.0464 -76.1950 21° North 495 570 24,000 -180 Descending Boston Center
08:53AM 42.1661 -76.1069 29° Northeast 495 570 24,000  Level Boston Center
08:54AM 42.2275 -75.9425 63° Northeast 467 537 24,000  Level Boston Center
08:55AM 42.2847 -75.7714 66° East 475 547 24,000 -960 Level Boston Center
08:57AM 42.3369 -75.5522 72° East 470 541 21,800 -1,920 Descending Boston Center
08:58AM 42.3881 -75.3497 71° East 470 541 19,400 -2,280 Descending Boston Center
08:59AM 42.4278 -75.1828 72° East 470 541 17,300 -2,100 Descending Boston Center
09:00AM 42.4625 -75.0322 73° East 470 541 15,300 -2,040 Descending Boston Center
09:01AM 42.5014 -74.8761 71° East 461 531 13,300 -2,100 Descending Boston Center
09:02AM 42.5383 -74.7056 74° East 435 501 11,200 -1,200 Descending Boston Center
09:03AM 42.5678 -74.5797 72° East 406 467 11,000 -420 Descending Boston Center
09:04AM 42.6100 -74.4403 68° East 371 427 10,400 -1,140 Descending Boston Center
09:05AM 42.6469 -74.3456 62° Northeast 329 379 8,800 -1,740 Descending Boston Center
09:06AM 42.6928 -74.2283 62° Northeast 311 358 7,000 -1,560 Descending Boston Center
09:07AM 42.7233 -74.1331 66° East 306 352 5,700 -1,560 Descending Boston Center
09:08AM 42.7603 -74.0208 66° East 301 346 3,900 -1,680 Descending Boston Center
09:08AM 42.7669 -73.9956 70° East 299 344 3,600 -780 Descending Boston Center
09:09AM 42.7972 -73.9228 60° Northeast 289 333 3,000 -660 Descending Boston Center